createdAt,value
2023-02-06T00:02:02.758Z,3.53
2023-02-06T00:04:48.745Z,3.33
2023-02-06T00:07:34.821Z,3.45
2023-02-06T00:10:21.189Z,3.53
2023-02-06T00:13:07.436Z,3.40
2023-02-06T00:15:53.873Z,3.58
2023-02-06T00:18:40.004Z,3.75
2023-02-06T00:21:27.197Z,3.50
2023-02-06T00:24:13.432Z,3.38
2023-02-06T00:26:59.662Z,3.25
2023-02-06T00:29:45.715Z,3.05
2023-02-06T00:32:32.994Z,3.33
2023-02-06T00:35:19.307Z,2.92
2023-02-06T00:38:06.923Z,3.30
2023-02-06T00:40:53.020Z,2.92
2023-02-06T00:43:39.117Z,3.38
2023-02-06T00:46:25.529Z,3.20
2023-02-06T00:49:12.256Z,3.15
2023-02-06T00:51:58.607Z,3.20
2023-02-06T00:54:44.727Z,3.33
2023-02-06T00:57:30.768Z,3.42
2023-02-06T01:00:17.228Z,3.00
2023-02-06T01:03:03.660Z,3.50
2023-02-06T01:05:50.337Z,3.30
2023-02-06T01:08:36.680Z,2.90
2023-02-06T01:11:24.138Z,2.80
2023-02-06T01:14:10.654Z,3.38
2023-02-06T01:16:56.616Z,3.40
2023-02-06T01:19:42.895Z,3.42
2023-02-06T01:22:29.462Z,3.20
2023-02-06T01:25:15.548Z,3.55
2023-02-06T01:28:01.845Z,3.38
2023-02-06T01:30:49.332Z,3.80
2023-02-06T01:33:35.873Z,3.30
2023-02-06T01:36:22.206Z,3.40
2023-02-06T01:39:08.866Z,3.13
2023-02-06T01:41:54.922Z,3.25
2023-02-06T01:44:42.982Z,2.75
2023-02-06T01:47:29.179Z,3.00
2023-02-06T01:50:15.383Z,2.72
2023-02-06T01:53:02.263Z,2.75
2023-02-06T01:55:49.412Z,2.95
2023-02-06T01:58:38.165Z,2.92
2023-02-06T02:01:24.871Z,2.88
2023-02-06T02:04:14.513Z,2.63
2023-02-06T02:07:07.867Z,2.67
2023-02-06T02:12:40.344Z,2.95
2023-02-06T02:15:33.038Z,3.22
2023-02-06T02:18:19.639Z,3.00
2023-02-06T02:21:14.941Z,3.55
2023-02-06T02:24:19.273Z,3.13
2023-02-06T02:27:08.776Z,2.97
2023-02-06T02:30:00.928Z,3.30
2023-02-06T02:32:47.816Z,2.75
2023-02-06T02:35:40.069Z,2.90
2023-02-06T02:41:19.923Z,2.65
2023-02-06T02:44:06.833Z,2.80
2023-02-06T02:46:55.850Z,2.83
2023-02-06T02:49:43.650Z,3.22
2023-02-06T02:52:30.219Z,3.63
2023-02-06T02:55:18.229Z,3.90
2023-02-06T02:58:11.577Z,4.28
2023-02-06T03:01:11.645Z,4.40
2023-02-06T03:04:00.476Z,3.60
2023-02-06T03:07:16.467Z,3.65
2023-02-06T03:10:15.048Z,3.50
2023-02-06T03:13:16.485Z,3.85
2023-02-06T03:16:10.372Z,3.13
2023-02-06T03:18:59.479Z,3.25
2023-02-06T03:21:48.424Z,2.83
2023-02-06T03:24:48.161Z,2.47
2023-02-06T03:27:34.935Z,2.60
2023-02-06T03:30:24.014Z,2.60
2023-02-06T03:33:12.645Z,2.67
2023-02-06T03:35:59.062Z,2.22
2023-02-06T03:38:46.384Z,2.00
2023-02-06T03:41:34.410Z,2.50
2023-02-06T03:44:23.594Z,2.25
2023-02-06T03:47:10.949Z,2.42
2023-02-06T03:49:59.399Z,2.33
2023-02-06T03:52:48.193Z,2.33
2023-02-06T03:55:35.659Z,3.63
2023-02-06T03:58:24.448Z,2.35
2023-02-06T04:01:12.500Z,2.45
2023-02-06T04:03:58.926Z,2.50
2023-02-06T04:06:45.377Z,2.17
2023-02-06T04:09:31.496Z,2.50
2023-02-06T04:12:18.158Z,2.63
2023-02-06T04:15:04.713Z,2.40
2023-02-06T04:18:00.165Z,2.67
2023-02-06T04:20:47.715Z,3.10
2023-02-06T04:23:34.853Z,2.30
2023-02-06T04:26:21.216Z,3.10
2023-02-06T04:29:07.364Z,3.38
2023-02-06T04:31:53.670Z,2.47
2023-02-06T04:34:39.942Z,3.00
2023-02-06T04:37:25.893Z,2.92
2023-02-06T04:40:12.606Z,2.90
2023-02-06T04:42:58.738Z,3.30
2023-02-06T04:45:45.137Z,3.22
2023-02-06T04:48:31.720Z,3.15
2023-02-06T04:51:18.125Z,3.00
2023-02-06T04:54:05.043Z,3.22
2023-02-06T04:56:51.202Z,3.33
2023-02-06T04:59:37.289Z,3.17
2023-02-06T05:02:23.450Z,3.25
2023-02-06T05:05:09.920Z,3.20
2023-02-06T05:07:56.182Z,3.50
2023-02-06T05:10:42.190Z,3.58
2023-02-06T05:13:28.413Z,3.30
2023-02-06T05:16:15.445Z,3.88
2023-02-06T05:19:01.650Z,3.50
2023-02-06T05:21:47.793Z,3.58
2023-02-06T05:24:33.825Z,3.90
2023-02-06T05:27:20.099Z,3.92
2023-02-06T05:30:06.584Z,4.10
2023-02-06T05:32:52.953Z,4.03
2023-02-06T05:35:39.799Z,4.18
2023-02-06T05:38:26.216Z,4.45
2023-02-06T05:41:12.829Z,4.30
2023-02-06T05:43:58.821Z,4.25
2023-02-06T05:46:44.838Z,4.03
2023-02-06T05:49:31.293Z,4.55
2023-02-06T05:52:17.515Z,4.28
2023-02-06T05:55:03.567Z,4.45
2023-02-06T05:57:49.801Z,4.13
2023-02-06T06:00:36.101Z,3.85
2023-02-06T06:03:22.181Z,4.47
2023-02-06T06:06:08.668Z,4.30
2023-02-06T06:08:55.044Z,3.88
2023-02-06T06:11:41.092Z,4.28
2023-02-06T06:14:27.614Z,3.80
2023-02-06T06:17:14.093Z,3.90
2023-02-06T06:20:00.341Z,4.25
2023-02-06T06:22:46.531Z,3.95
2023-02-06T06:25:32.960Z,4.28
2023-02-06T06:28:19.518Z,4.35
2023-02-06T06:31:07.135Z,4.40
2023-02-06T06:33:54.293Z,4.57
2023-02-06T06:36:41.202Z,4.65
2023-02-06T06:39:27.601Z,5.00
2023-02-06T06:42:13.873Z,4.97
2023-02-06T06:44:59.914Z,4.10
2023-02-06T06:47:46.233Z,4.00
2023-02-06T06:50:32.538Z,4.55
2023-02-06T06:53:19.061Z,4.28
2023-02-06T06:56:05.957Z,3.88
2023-02-06T06:58:52.156Z,3.60
2023-02-06T07:01:38.509Z,4.60
2023-02-06T07:04:28.584Z,4.00
2023-02-06T07:07:14.674Z,3.67
2023-02-06T07:10:00.964Z,3.17
2023-02-06T07:12:47.294Z,3.50
2023-02-06T07:15:33.614Z,3.22
2023-02-06T07:18:20.184Z,2.97
2023-02-06T07:21:08.924Z,3.63
2023-02-06T07:23:55.631Z,3.55
2023-02-06T07:26:42.394Z,3.03
2023-02-06T07:29:28.347Z,2.80
2023-02-06T07:32:14.830Z,2.80
2023-02-06T07:35:01.190Z,2.30
2023-02-06T07:37:47.384Z,2.28
2023-02-06T07:40:44.708Z,2.60
2023-02-06T07:43:32.265Z,2.63
2023-02-06T07:46:18.592Z,2.92
2023-02-06T07:49:04.779Z,3.03
2023-02-06T07:51:50.922Z,2.97
2023-02-06T07:54:37.000Z,2.30
2023-02-06T07:57:23.067Z,2.10
2023-02-06T08:00:09.998Z,2.50
2023-02-06T08:02:59.368Z,2.58
2023-02-06T08:05:45.661Z,2.22
2023-02-06T08:08:32.061Z,2.17
2023-02-06T08:12:02.243Z,1.73
2023-02-06T08:14:48.982Z,2.33
2023-02-06T08:17:35.998Z,2.00
2023-02-06T08:20:22.068Z,2.20
2023-02-06T08:23:08.420Z,2.33
2023-02-06T08:26:01.480Z,2.28
2023-02-06T08:28:48.366Z,1.80
2023-02-06T08:31:36.726Z,1.90
2023-02-06T08:34:23.660Z,2.00
2023-02-06T08:37:09.930Z,2.25
2023-02-06T08:39:56.274Z,2.10
2023-02-06T08:42:42.646Z,1.98
2023-02-06T08:45:28.913Z,2.00
2023-02-06T08:48:14.824Z,2.00
2023-02-06T08:51:08.204Z,2.00
2023-02-06T08:54:01.558Z,1.80
2023-02-06T08:56:48.006Z,1.90
2023-02-06T08:59:35.464Z,1.73
2023-02-06T09:02:21.947Z,2.08
2023-02-06T09:05:08.248Z,1.73
2023-02-06T09:07:54.576Z,1.88
2023-02-06T09:10:41.006Z,2.03
2023-02-06T09:13:27.282Z,1.80
2023-02-06T09:16:14.000Z,1.45
2023-02-06T09:19:01.593Z,1.90
2023-02-06T09:21:47.519Z,2.05
2023-02-06T09:24:33.873Z,1.45
2023-02-06T09:27:21.102Z,2.00
2023-02-06T09:30:07.694Z,1.85
2023-02-06T09:32:54.865Z,1.80
2023-02-06T09:35:41.575Z,1.85
2023-02-06T09:38:27.858Z,1.80
2023-02-06T09:41:32.450Z,1.83
2023-02-06T09:44:18.967Z,1.67
2023-02-06T09:47:26.128Z,1.85
2023-02-06T09:50:31.491Z,1.60
2023-02-06T09:53:31.073Z,2.00
2023-02-06T09:56:23.509Z,2.03
2023-02-06T09:59:24.610Z,1.80
2023-02-06T10:02:19.908Z,1.88
2023-02-06T10:05:22.361Z,1.95
2023-02-06T10:08:12.018Z,1.88
2023-02-06T10:11:00.575Z,1.60
2023-02-06T10:13:51.403Z,2.08
2023-02-06T10:16:41.107Z,1.73
2023-02-06T10:19:43.958Z,2.03
2023-02-06T10:22:49.534Z,1.70
2023-02-06T10:25:41.273Z,1.65
2023-02-06T10:28:29.332Z,1.70
2023-02-06T10:31:15.923Z,1.95
2023-02-06T10:34:17.830Z,1.50
2023-02-06T10:37:15.504Z,1.63
2023-02-06T10:40:07.759Z,1.50
2023-02-06T10:43:01.161Z,1.73
2023-02-06T10:45:54.368Z,1.60
2023-02-06T10:48:44.583Z,1.38
2023-02-06T10:51:38.967Z,1.75
2023-02-06T10:54:27.379Z,1.90
2023-02-06T10:57:19.051Z,1.60
2023-02-06T11:00:08.473Z,1.58
2023-02-06T11:03:07.196Z,1.80
2023-02-06T11:05:53.941Z,1.50
2023-02-06T11:08:42.711Z,2.03
2023-02-06T11:11:33.536Z,1.80
2023-02-06T11:14:28.558Z,1.30
2023-02-06T11:17:20.917Z,1.98
2023-02-06T11:20:18.148Z,1.92
2023-02-06T11:23:24.084Z,1.65
2023-02-06T11:26:13.076Z,1.50
2023-02-06T11:29:03.230Z,1.48
2023-02-06T11:31:54.678Z,1.92
2023-02-06T11:35:01.067Z,1.60
2023-02-06T11:37:51.038Z,1.60
2023-02-06T11:40:37.748Z,1.73
2023-02-06T11:43:26.268Z,1.85
2023-02-06T11:46:17.530Z,1.70
2023-02-06T11:49:03.878Z,1.88
2023-02-06T11:51:59.920Z,2.03
2023-02-06T11:54:55.073Z,1.83
2023-02-06T11:57:41.261Z,1.35
2023-02-06T12:00:27.506Z,1.98
2023-02-06T12:03:32.643Z,1.42
2023-02-06T12:06:25.186Z,1.52
2023-02-06T12:09:14.522Z,1.70
2023-02-06T12:12:19.588Z,1.38
2023-02-06T12:15:33.115Z,1.92
2023-02-06T12:18:17.725Z,1.52
2023-02-06T12:21:08.864Z,1.48
2023-02-06T12:24:01.058Z,1.30
2023-02-06T12:26:48.612Z,1.85
2023-02-06T12:29:41.897Z,1.40
2023-02-06T12:32:44.045Z,1.73
2023-02-06T12:35:33.378Z,1.60
2023-02-06T12:38:19.929Z,1.42
2023-02-06T12:41:06.731Z,1.80
2023-02-06T12:43:55.851Z,1.80
2023-02-06T12:46:43.140Z,1.98
2023-02-06T12:49:32.856Z,1.50
2023-02-06T12:52:19.606Z,1.67
2023-02-06T12:58:50.275Z,1.90
2023-02-06T13:01:40.864Z,2.15
2023-02-06T13:04:29.930Z,1.98
2023-02-06T13:07:17.811Z,1.83
2023-02-06T13:10:06.677Z,1.67
2023-02-06T13:12:58.544Z,1.60
2023-02-06T13:15:53.357Z,1.90
2023-02-06T13:18:43.411Z,1.85
2023-02-06T13:21:32.639Z,2.13
2023-02-06T13:24:19.743Z,1.88
2023-02-06T13:27:09.166Z,2.25
2023-02-06T13:30:17.642Z,1.77
2023-02-06T13:33:15.978Z,2.17
2023-02-06T13:36:14.504Z,1.75
2023-02-06T13:39:13.919Z,1.40
2023-02-06T13:42:03.320Z,1.52
2023-02-06T13:44:50.478Z,1.55
2023-02-06T13:47:52.977Z,1.67
2023-02-06T13:50:42.601Z,1.58
2023-02-06T13:53:33.075Z,1.65
2023-02-06T13:56:36.737Z,2.00
2023-02-06T13:59:28.371Z,1.65
2023-02-06T14:02:22.940Z,1.90
2023-02-06T14:05:14.958Z,2.17
2023-02-06T14:08:12.816Z,1.60
2023-02-06T14:11:05.259Z,1.63
2023-02-06T14:13:51.895Z,1.73
2023-02-06T14:16:50.507Z,1.88
2023-02-06T14:19:43.392Z,1.50
2023-02-06T14:22:42.621Z,1.98
2023-02-06T14:25:38.517Z,2.33
2023-02-06T14:28:30.916Z,2.38
2023-02-06T14:31:24.853Z,1.77
2023-02-06T14:34:17.180Z,1.90
2023-02-06T14:37:12.530Z,2.13
2023-02-06T14:40:04.473Z,2.25
2023-02-06T14:42:51.857Z,2.15
2023-02-06T14:45:42.525Z,2.72
2023-02-06T14:48:48.221Z,2.38
2023-02-06T14:51:38.948Z,2.38
2023-02-06T14:54:30.555Z,2.40
2023-02-06T14:57:21.788Z,2.13
2023-02-06T15:00:17.867Z,2.00
2023-02-06T15:03:15.895Z,2.00
2023-02-06T15:06:05.084Z,1.92
2023-02-06T15:08:51.747Z,2.00
2023-02-06T15:11:38.357Z,1.67
2023-02-06T15:14:26.883Z,1.80
2023-02-06T15:17:20.235Z,1.98
2023-02-06T15:22:58.172Z,2.00
2023-02-06T15:26:27.074Z,2.10
2023-02-06T15:29:22.386Z,1.98
2023-02-06T15:32:18.222Z,2.10
2023-02-06T15:35:18.108Z,1.90
2023-02-06T15:38:08.857Z,1.45
2023-02-06T15:41:06.517Z,2.20
2023-02-06T15:43:54.055Z,2.00
2023-02-06T15:46:40.858Z,1.95
2023-02-06T15:49:43.820Z,2.03
2023-02-06T15:52:42.989Z,1.92
2023-02-06T15:55:31.101Z,2.30
2023-02-06T15:58:17.715Z,2.10
2023-02-06T16:01:05.911Z,1.98
2023-02-06T16:03:53.425Z,2.08
2023-02-06T16:06:39.700Z,2.45
2023-02-06T16:09:26.539Z,1.75
2023-02-06T16:12:14.075Z,2.17
2023-02-06T16:15:02.017Z,2.03
2023-02-06T16:17:48.556Z,1.85
2023-02-06T16:20:44.163Z,2.00
2023-02-06T16:23:44.395Z,2.25
2023-02-06T16:26:31.673Z,1.90
2023-02-06T16:29:32.446Z,1.80
2023-02-06T16:32:21.667Z,1.80
2023-02-06T16:35:14.197Z,2.08
2023-02-06T16:38:00.666Z,2.55
2023-02-06T16:40:48.686Z,2.17
2023-02-06T16:43:34.973Z,2.10
2023-02-06T16:46:21.810Z,2.17
2023-02-06T16:49:15.554Z,1.70
2023-02-06T16:52:01.849Z,1.98
2023-02-06T16:54:48.168Z,2.20
2023-02-06T16:57:36.757Z,2.00
2023-02-06T17:00:30.148Z,1.98
2023-02-06T17:03:17.894Z,2.10
2023-02-06T17:06:04.834Z,2.25
2023-02-06T17:08:51.976Z,1.90
2023-02-06T17:11:39.380Z,2.33
2023-02-06T17:14:25.689Z,2.30
2023-02-06T17:17:16.644Z,2.08
2023-02-06T17:20:03.094Z,2.05
2023-02-06T17:22:50.849Z,2.30
2023-02-06T17:25:38.357Z,2.47
2023-02-06T17:28:24.975Z,2.15
2023-02-06T17:31:12.248Z,2.08
2023-02-06T17:33:59.653Z,2.10
2023-02-06T17:36:46.130Z,2.22
2023-02-06T17:39:32.582Z,1.90
2023-02-06T17:42:20.451Z,2.17
2023-02-06T17:45:09.694Z,2.33
2023-02-06T17:47:56.176Z,2.47
2023-02-06T17:50:44.199Z,2.85
2023-02-06T17:53:30.386Z,2.50
2023-02-06T17:56:16.636Z,2.83
2023-02-06T17:59:03.403Z,2.20
2023-02-06T18:01:50.488Z,2.38
2023-02-06T18:04:37.036Z,2.88
2023-02-06T18:07:23.359Z,2.00
2023-02-06T18:10:12.125Z,2.00
2023-02-06T18:12:58.426Z,2.35
2023-02-06T18:15:56.086Z,2.70
2023-02-06T18:18:42.572Z,3.00
2023-02-06T18:21:31.722Z,2.80
2023-02-06T18:24:18.410Z,2.38
2023-02-06T18:27:05.686Z,2.35
2023-02-06T18:29:55.847Z,2.15
2023-02-06T18:32:42.058Z,2.65
2023-02-06T18:35:28.714Z,2.40
2023-02-06T18:38:15.827Z,2.33
2023-02-06T18:41:05.790Z,2.17
2023-02-06T18:43:52.175Z,2.72
2023-02-06T18:46:44.061Z,2.40
2023-02-06T18:49:30.520Z,2.40
2023-02-06T18:52:18.009Z,2.13
2023-02-06T18:55:04.884Z,2.72
2023-02-06T18:57:51.441Z,2.45
2023-02-06T19:00:40.290Z,2.80
2023-02-06T19:03:26.842Z,2.30
2023-02-06T19:06:17.006Z,2.63
2023-02-06T19:09:07.232Z,2.58
2023-02-06T19:11:53.895Z,1.95
2023-02-06T19:14:40.350Z,2.08
2023-02-06T19:17:27.701Z,2.08
2023-02-06T19:20:14.164Z,2.35
2023-02-06T19:23:00.747Z,2.72
2023-02-06T19:25:47.726Z,2.50
2023-02-06T19:28:35.062Z,2.28
2023-02-06T19:31:25.252Z,1.85
2023-02-06T19:34:11.702Z,2.40
2023-02-06T19:36:58.222Z,2.35
2023-02-06T19:39:45.123Z,2.28
2023-02-06T19:42:31.653Z,1.85
2023-02-06T19:45:18.129Z,2.03
2023-02-06T19:48:07.151Z,2.03
2023-02-06T19:50:54.137Z,2.47
2023-02-06T19:53:45.635Z,2.70
2023-02-06T19:56:41.426Z,2.05
2023-02-06T19:59:29.101Z,2.42
2023-02-06T20:02:16.844Z,1.98
2023-02-06T20:05:03.894Z,2.00
2023-02-06T20:07:50.790Z,2.55
2023-02-06T20:10:38.408Z,1.98
2023-02-06T20:13:25.684Z,2.13
2023-02-06T20:16:16.767Z,2.40
2023-02-06T20:19:08.431Z,2.63
2023-02-06T20:21:57.027Z,2.10
2023-02-06T20:24:44.027Z,2.30
2023-02-06T20:27:31.196Z,2.40
2023-02-06T20:30:19.514Z,1.88
2023-02-06T20:33:06.474Z,2.10
2023-02-06T20:35:53.675Z,2.28
2023-02-06T20:38:39.987Z,2.42
2023-02-06T20:41:27.756Z,2.13
2023-02-06T20:44:15.243Z,2.08
2023-02-06T20:47:01.459Z,2.13
2023-02-06T20:49:55.589Z,2.13
2023-02-06T20:52:42.481Z,1.90
2023-02-06T20:55:28.726Z,2.05
2023-02-06T20:58:15.812Z,2.40
2023-02-06T21:01:02.963Z,1.67
2023-02-06T21:03:50.057Z,2.40
2023-02-06T21:06:38.182Z,2.42
2023-02-06T21:09:25.622Z,1.95
2023-02-06T21:12:12.555Z,2.10
2023-02-06T21:14:58.836Z,2.45
2023-02-06T21:17:45.132Z,2.13
2023-02-06T21:20:31.311Z,2.53
2023-02-06T21:23:17.953Z,2.45
2023-02-06T21:26:04.885Z,2.45
2023-02-06T21:28:51.684Z,1.98
2023-02-06T21:31:38.839Z,1.92
2023-02-06T21:34:26.157Z,2.10
2023-02-06T21:37:13.089Z,1.95
2023-02-06T21:39:59.724Z,1.70
2023-02-06T21:42:45.837Z,2.22
2023-02-06T21:45:32.642Z,2.33
2023-02-06T21:48:19.665Z,2.00
2023-02-06T21:51:17.536Z,2.35
2023-02-06T21:54:04.883Z,2.05
2023-02-06T21:56:51.990Z,2.30
2023-02-06T21:59:39.144Z,2.00
2023-02-06T22:02:26.231Z,2.10
2023-02-06T22:05:12.633Z,1.95
2023-02-06T22:07:59.791Z,2.45
2023-02-06T22:10:46.515Z,2.33
2023-02-06T22:13:32.884Z,3.10
2023-02-06T22:16:20.800Z,2.40
2023-02-06T22:28:12.380Z,2.13
2023-02-06T22:31:07.386Z,2.95
2023-02-06T22:33:54.513Z,2.75
2023-02-06T22:36:41.065Z,2.22
2023-02-06T22:39:28.098Z,2.38
2023-02-06T22:42:14.593Z,2.33
2023-02-06T22:45:02.117Z,2.08
2023-02-06T22:47:48.404Z,2.50
2023-02-06T22:50:36.660Z,2.72
2023-02-06T22:53:33.582Z,2.33
2023-02-06T22:56:27.507Z,2.53
2023-02-06T22:59:18.300Z,2.00
2023-02-06T23:02:04.537Z,2.47
2023-02-06T23:04:51.042Z,2.03
2023-02-06T23:07:38.304Z,2.13
2023-02-06T23:10:24.472Z,2.42
2023-02-06T23:13:10.888Z,2.42
2023-02-06T23:15:57.849Z,2.08
2023-02-06T23:18:43.951Z,2.05
2023-02-06T23:21:30.286Z,1.92
2023-02-06T23:24:17.199Z,2.33
2023-02-06T23:27:03.391Z,2.33
2023-02-06T23:29:49.984Z,2.45
2023-02-06T23:32:36.451Z,2.40
2023-02-06T23:35:22.653Z,2.15
2023-02-06T23:38:09.540Z,2.42
2023-02-06T23:40:55.938Z,2.70
2023-02-06T23:43:42.068Z,2.10
2023-02-06T23:46:29.743Z,2.40
2023-02-06T23:49:16.374Z,2.08
2023-02-06T23:52:02.685Z,2.47
2023-02-06T23:54:48.856Z,3.28
2023-02-06T23:57:38.780Z,2.25
